Time;durP1;ratioP1;P1;durP2;ratioP2;P2;SDS_P1;SDS_P2;PMS_P1;PMS_P2;Temp;Humidity;BMP_temperature;BMP_pressure;BME280_temperature;BME280_humidity;BME280_pressure;Samples;Min_cycle;Max_cycle;Signal;HPM_P1;HPM_P2
2022/07/15 00:01:06;;;;;;;4.00;2.20;;;22.80;65.60;;;;;;5026608;28;20194;-70
2022/07/15 00:03:31;;;;;;;3.17;2.83;;;22.80;65.20;;;;;;5026552;28;20365;-71
2022/07/15 00:05:57;;;;;;;6.97;3.13;;;22.70;65.40;;;;;;5026515;28;20517;-71
2022/07/15 00:08:23;;;;;;;4.47;2.80;;;22.60;65.80;;;;;;5026669;28;20236;-69
2022/07/15 00:10:48;;;;;;;3.23;2.60;;;22.50;66.50;;;;;;5026442;28;20190;-70
2022/07/15 00:13:14;;;;;;;4.43;2.40;;;22.30;67.20;;;;;;5026667;28;20175;-70
2022/07/15 00:15:40;;;;;;;4.67;2.80;;;22.20;68.10;;;;;;5025944;28;20219;-70
2022/07/15 00:18:06;;;;;;;5.67;2.60;;;21.90;68.70;;;;;;5026437;28;20825;-70
2022/07/15 00:20:36;;;;;;;3.90;2.83;;;21.80;69.40;;;;;;5026309;28;20186;-69
2022/07/15 00:23:04;;;;;;;2.73;2.53;;;21.60;69.30;;;;;;5026424;28;20184;-71
2022/07/15 00:25:30;;;;;;;3.40;2.40;;;21.40;70.30;;;;;;5025626;28;20441;-70
2022/07/15 00:27:58;;;;;;;2.90;2.43;;;21.30;70.80;;;;;;5026592;28;20429;-70
2022/07/15 00:30:29;;;;;;;3.50;2.73;;;21.20;71.10;;;;;;5026192;28;20241;-71
2022/07/15 00:32:55;;;;;;;5.47;2.67;;;21.00;72.20;;;;;;5026558;28;20429;-70
2022/07/15 00:35:20;;;;;;;4.67;2.90;;;21.10;72.30;;;;;;5025901;28;20445;-73
2022/07/15 00:37:46;;;;;;;3.27;2.80;;;20.90;72.20;;;;;;5025618;28;20246;-70
2022/07/15 00:40:12;;;;;;;3.13;2.40;;;20.90;73.00;;;;;;5025836;28;20183;-69
2022/07/15 00:42:44;;;;;;;4.23;3.00;;;20.80;73.40;;;;;;5026026;28;20232;-70
2022/07/15 00:45:11;;;;;;;3.10;2.57;;;20.70;73.40;;;;;;5025658;28;20426;-70
2022/07/15 00:47:36;;;;;;;2.70;2.50;;;20.60;74.80;;;;;;5025897;28;20422;-71
2022/07/15 00:50:02;;;;;;;3.10;2.80;;;20.60;75.20;;;;;;5025650;28;21283;-71
2022/07/15 00:52:29;;;;;;;3.37;2.27;;;20.50;75.30;;;;;;5024870;28;20648;-70
2022/07/15 00:54:59;;;;;;;2.90;2.30;;;20.60;75.60;;;;;;5025543;28;20249;-69
2022/07/15 00:57:26;;;;;;;4.00;2.67;;;20.80;75.00;;;;;;5025738;28;20457;-70
2022/07/15 00:59:53;;;;;;;2.50;2.30;;;20.80;74.70;;;;;;5025428;28;20406;-69
2022/07/15 01:02:19;;;;;;;4.27;3.00;;;20.40;75.70;;;;;;5026020;28;20413;-69
2022/07/15 01:04:46;;;;;;;3.83;2.60;;;20.40;77.00;;;;;;5025297;28;20445;-70
2022/07/15 01:07:13;;;;;;;3.13;2.83;;;20.40;77.00;;;;;;5025685;28;20483;-71
2022/07/15 01:09:38;;;;;;;2.73;2.53;;;20.40;76.50;;;;;;5025664;28;20799;-70
2022/07/15 01:12:04;;;;;;;3.30;2.50;;;20.40;76.80;;;;;;5025257;28;20418;-70
2022/07/15 01:14:30;;;;;;;3.70;2.60;;;20.40;77.40;;;;;;5024906;28;20219;-70
2022/07/15 01:16:56;;;;;;;3.80;2.60;;;20.50;77.50;;;;;;5025073;28;20544;-69
2022/07/15 01:19:21;;;;;;;6.73;3.03;;;20.40;77.50;;;;;;5025366;28;20182;-70
2022/07/15 01:21:47;;;;;;;3.37;2.57;;;20.30;77.80;;;;;;5025144;28;20184;-71
2022/07/15 01:24:12;;;;;;;3.37;2.93;;;20.30;78.30;;;;;;5025259;28;20199;-70
2022/07/15 01:26:38;;;;;;;4.37;3.07;;;20.30;78.30;;;;;;5023950;28;20183;-70
2022/07/15 01:29:04;;;;;;;6.50;3.03;;;20.30;78.30;;;;;;5059731;22;20226;-69
2022/07/15 01:31:29;;;;;;;3.23;2.87;;;20.30;79.10;;;;;;5023090;28;20189;-70
2022/07/15 01:33:55;;;;;;;3.57;3.27;;;20.30;79.10;;;;;;5026574;28;20181;-68
2022/07/15 01:36:21;;;;;;;5.90;3.07;;;20.00;80.00;;;;;;5044551;28;20210;-69
2022/07/15 01:38:46;;;;;;;4.80;2.70;;;19.90;81.40;;;;;;5044308;28;20194;-69
2022/07/15 01:41:12;;;;;;;3.20;2.80;;;19.70;81.50;;;;;;5044470;28;20480;-68
2022/07/15 01:43:37;;;;;;;4.60;2.97;;;19.70;82.50;;;;;;5018880;28;20202;-72
2022/07/15 01:46:03;;;;;;;3.20;2.90;;;19.60;82.90;;;;;;5024564;28;20179;-69
2022/07/15 01:51:13;;;;;;;4.20;2.97;;;19.60;84.40;;;;;;5024678;28;20170;-68
2022/07/15 01:53:38;;;;;;;4.00;2.90;;;19.60;85.00;;;;;;5024404;28;20415;-68
2022/07/15 01:56:05;;;;;;;6.63;2.97;;;19.50;85.50;;;;;;5024760;28;20172;-69
2022/07/15 01:58:30;;;;;;;3.37;3.07;;;19.50;85.90;;;;;;5024041;28;20199;-69
2022/07/15 02:00:56;;;;;;;3.30;3.00;;;19.40;86.30;;;;;;5024205;28;20424;-70
2022/07/15 02:03:21;;;;;;;4.93;3.23;;;19.40;86.60;;;;;;5024532;28;20260;-69
2022/07/15 02:05:47;;;;;;;3.37;3.07;;;19.20;87.50;;;;;;5006357;28;20675;-69
2022/07/15 02:08:12;;;;;;;4.73;3.33;;;19.20;87.90;;;;;;5024364;28;20210;-69
2022/07/15 02:10:41;;;;;;;3.80;2.90;;;19.20;88.60;;;;;;5029575;28;20197;-69
2022/07/15 02:13:11;;;;;;;5.87;3.20;;;19.10;89.10;;;;;;5043940;28;20183;-69
2022/07/15 02:15:37;;;;;;;4.83;3.20;;;19.10;89.90;;;;;;5043992;28;20432;-70
2022/07/15 02:18:03;;;;;;;6.13;3.27;;;19.10;90.10;;;;;;5043761;28;20833;-69
2022/07/15 02:20:30;;;;;;;3.57;2.97;;;19.00;90.20;;;;;;5044325;28;20524;-69
2022/07/15 02:23:15;;;;;;;5.40;3.70;;;19.00;90.30;;;;;;5044087;28;20409;-69
2022/07/15 02:25:41;;;;;;;7.00;3.97;;;19.00;90.50;;;;;;5033002;28;20482;-68
2022/07/15 02:28:07;;;;;;;4.53;3.10;;;19.00;90.70;;;;;;5025528;28;20462;-68
2022/07/15 02:30:36;;;;;;;5.03;3.10;;;19.00;90.70;;;;;;5023919;28;20422;-69
2022/07/15 02:33:03;;;;;;;4.77;3.23;;;18.90;90.90;;;;;;5035686;28;20417;-69
2022/07/15 02:35:29;;;;;;;3.60;3.30;;;18.90;91.20;;;;;;5043126;28;20420;-71
2022/07/15 02:37:55;;;;;;;3.83;2.90;;;18.90;91.30;;;;;;5031736;28;20471;-70
2022/07/15 02:40:21;;;;;;;4.40;2.97;;;18.80;91.70;;;;;;5025509;28;20418;-70
2022/07/15 02:42:55;;;;;;;3.47;3.17;;;18.70;92.00;;;;;;5028713;28;20440;-69
2022/07/15 02:45:24;;;;;;;3.80;2.70;;;18.70;92.00;;;;;;5026352;28;20212;-70
2022/07/15 02:47:51;;;;;;;5.60;3.17;;;18.70;92.10;;;;;;5023869;28;20451;-70
2022/07/15 02:50:17;;;;;;;4.90;3.20;;;18.60;91.90;;;;;;5023786;28;20512;-69
2022/07/15 02:52:43;;;;;;;3.23;2.83;;;18.70;92.00;;;;;;5023604;28;20421;-68
2022/07/15 02:55:11;;;;;;;6.13;3.10;;;18.70;91.90;;;;;;5033712;28;20467;-70
2022/07/15 02:57:38;;;;;;;4.73;2.80;;;18.60;91.90;;;;;;5030215;28;20483;-70
2022/07/15 03:00:06;;;;;;;3.20;2.50;;;18.50;92.00;;;;;;5023148;28;20565;-69
2022/07/15 03:02:32;;;;;;;5.73;2.90;;;18.50;92.30;;;;;;5025849;28;20422;-70
2022/07/15 03:04:57;;;;;;;4.30;3.10;;;18.50;92.50;;;;;;5031083;28;20413;-68
2022/07/15 03:07:24;;;;;;;3.53;3.20;;;18.50;92.30;;;;;;5026142;28;20198;-69
2022/07/15 03:09:49;;;;;;;3.47;2.70;;;18.50;92.40;;;;;;5036527;28;20225;-69
2022/07/15 03:12:15;;;;;;;3.60;2.73;;;18.40;92.30;;;;;;5028490;28;20948;-68
2022/07/15 03:14:41;;;;;;;2.80;2.47;;;18.40;92.50;;;;;;5027105;28;20179;-69
2022/07/15 03:17:07;;;;;;;2.83;2.40;;;18.30;92.20;;;;;;5027133;28;20198;-68
2022/07/15 03:19:33;;;;;;;3.97;2.63;;;18.20;92.60;;;;;;5041643;28;20178;-71
2022/07/15 03:21:59;;;;;;;4.47;2.40;;;18.20;93.10;;;;;;5046877;28;20409;-70
2022/07/15 03:24:25;;;;;;;4.70;3.53;;;18.20;93.10;;;;;;5046771;28;20420;-71
2022/07/15 03:26:51;;;;;;;2.43;2.17;;;18.10;93.10;;;;;;5047278;28;20439;-70
2022/07/15 03:29:17;;;;;;;3.93;2.40;;;18.20;93.10;;;;;;5029252;28;20241;-69
2022/07/15 03:31:43;;;;;;;3.53;3.20;;;18.10;93.00;;;;;;5027506;28;20569;-68
2022/07/15 03:34:10;;;;;;;2.60;2.40;;;18.20;93.20;;;;;;5026938;28;20595;-69
2022/07/15 03:36:37;;;;;;;4.47;2.60;;;18.20;93.20;;;;;;5026796;28;20450;-72
2022/07/15 03:39:03;;;;;;;3.10;2.53;;;18.20;93.10;;;;;;5026700;28;20448;-70
2022/07/15 03:41:29;;;;;;;3.83;2.80;;;18.20;93.20;;;;;;5026786;28;20421;-72
2022/07/15 03:43:55;;;;;;;4.10;2.47;;;18.20;93.20;;;;;;5026551;28;20804;-69
2022/07/15 03:46:21;;;;;;;4.83;2.80;;;18.20;93.30;;;;;;5026562;28;20418;-70
2022/07/15 03:48:47;;;;;;;3.27;2.73;;;18.20;93.20;;;;;;5026563;28;20213;-71
2022/07/15 03:51:13;;;;;;;3.17;2.57;;;18.20;93.40;;;;;;5026427;28;20643;-69
2022/07/15 03:53:38;;;;;;;2.77;2.40;;;18.20;93.50;;;;;;5026608;28;20567;-70
2022/07/15 03:56:04;;;;;;;2.50;2.30;;;18.20;93.90;;;;;;5026470;28;20997;-68
2022/07/15 03:58:29;;;;;;;5.17;3.10;;;18.10;94.20;;;;;;5025780;28;20290;-70
2022/07/15 04:00:55;;;;;;;3.33;2.77;;;18.20;94.20;;;;;;5026503;28;20573;-68
2022/07/15 04:03:21;;;;;;;4.37;3.07;;;18.30;94.00;;;;;;5028721;28;20506;-69
2022/07/15 04:05:46;;;;;;;3.80;2.60;;;18.30;94.30;;;;;;5046561;28;20175;-71
2022/07/15 04:08:12;;;;;;;2.80;2.60;;;18.30;94.40;;;;;;5045953;28;20217;-69
2022/07/15 04:10:40;;;;;;;4.77;2.87;;;18.40;94.40;;;;;;5046264;28;20186;-69
2022/07/15 04:13:06;;;;;;;4.20;3.07;;;18.40;94.30;;;;;;5046043;28;20210;-69
2022/07/15 04:15:31;;;;;;;4.80;2.87;;;18.50;94.50;;;;;;5045757;28;20455;-72
2022/07/15 04:17:58;;;;;;;3.27;2.97;;;18.40;94.70;;;;;;5045889;28;20267;-69
2022/07/15 04:20:25;;;;;;;3.70;2.90;;;18.40;95.00;;;;;;5043659;28;20215;-69
2022/07/15 04:22:50;;;;;;;5.17;2.77;;;18.30;95.30;;;;;;5035823;28;20508;-69
2022/07/15 04:25:19;;;;;;;4.70;2.90;;;18.30;95.60;;;;;;5024038;28;20623;-69
2022/07/15 04:27:46;;;;;;;2.70;2.50;;;18.30;95.50;;;;;;5040704;28;20215;-72
2022/07/15 04:30:12;;;;;;;6.87;3.33;;;18.40;95.50;;;;;;5026260;28;20450;-69
2022/07/15 04:32:38;;;;;;;4.33;2.73;;;18.50;95.70;;;;;;5026144;28;20512;-68
2022/07/15 04:35:05;;;;;;;3.20;2.90;;;18.60;95.60;;;;;;5019452;28;20509;-70
2022/07/15 04:37:30;;;;;;;5.60;3.33;;;18.70;95.60;;;;;;5045260;28;20202;-68
2022/07/15 04:39:56;;;;;;;3.07;2.77;;;18.70;95.80;;;;;;5041161;28;20428;-69
2022/07/15 04:42:22;;;;;;;4.87;3.13;;;18.80;96.00;;;;;;5045540;28;20179;-71
2022/07/15 04:44:48;;;;;;;3.77;2.50;;;18.80;96.20;;;;;;5034883;28;20339;-71
2022/07/15 04:47:14;;;;;;;3.97;2.70;;;18.80;96.20;;;;;;5030051;28;20852;-72
2022/07/15 04:52:27;;;;;;;5.43;3.33;;;18.90;96.70;;;;;;5025230;28;21355;-70
2022/07/15 04:54:53;;;;;;;4.93;3.43;;;18.90;97.10;;;;;;5025343;28;20489;-69
2022/07/15 04:57:20;;;;;;;3.60;2.97;;;18.90;97.10;;;;;;5042826;28;20485;-70
2022/07/15 04:59:45;;;;;;;5.00;3.20;;;18.90;97.30;;;;;;5033356;28;20504;-69
2022/07/15 05:02:11;;;;;;;3.53;2.87;;;19.00;97.30;;;;;;5045047;28;20512;-68
2022/07/15 05:04:36;;;;;;;4.33;3.50;;;19.00;97.70;;;;;;5044913;28;20186;-69
2022/07/15 05:07:02;;;;;;;3.30;2.90;;;19.00;98.10;;;;;;5026913;28;20387;-69
2022/07/15 05:09:28;;;;;;;3.40;3.10;;;19.10;98.10;;;;;;5045008;28;20206;-69
2022/07/15 05:11:54;;;;;;;4.73;3.30;;;19.10;98.40;;;;;;5045531;28;20939;-71
2022/07/15 05:14:19;;;;;;;3.80;3.20;;;19.20;98.50;;;;;;5044860;28;20174;-69
2022/07/15 05:16:46;;;;;;;5.27;3.63;;;19.30;98.70;;;;;;5044864;28;20200;-69
2022/07/15 05:19:11;;;;;;;8.60;3.30;;;19.40;99.00;;;;;;5032198;28;20199;-70
2022/07/15 05:21:37;;;;;;;5.73;3.20;;;19.40;98.70;;;;;;5024729;28;21042;-69
2022/07/15 05:24:03;;;;;;;5.90;3.40;;;19.60;98.90;;;;;;5036617;28;20179;-70
2022/07/15 05:26:29;;;;;;;3.50;2.77;;;19.60;99.00;;;;;;5024786;28;20614;-70
2022/07/15 05:28:54;;;;;;;3.37;3.07;;;19.70;98.70;;;;;;5024497;28;20556;-70
2022/07/15 05:31:20;;;;;;;4.70;3.63;;;19.80;98.50;;;;;;5030952;28;20574;-69
2022/07/15 05:33:45;;;;;;;5.83;3.60;;;19.90;98.60;;;;;;5033252;28;20193;-69
2022/07/15 05:36:12;;;;;;;4.53;3.50;;;20.00;98.90;;;;;;5043035;28;20185;-70
2022/07/15 05:38:38;;;;;;;3.60;2.83;;;20.10;99.10;;;;;;5039626;28;20726;-69
2022/07/15 05:41:04;;;;;;;5.70;3.37;;;20.20;98.80;;;;;;5035048;28;20421;-69
2022/07/15 05:43:30;;;;;;;6.37;4.10;;;20.30;98.60;;;;;;5043826;28;20413;-69
2022/07/15 05:45:56;;;;;;;4.40;3.80;;;20.40;98.20;;;;;;5038848;28;20270;-69
2022/07/15 05:48:21;;;;;;;4.47;3.87;;;20.50;98.00;;;;;;5024880;28;20533;-70
2022/07/15 05:50:47;;;;;;;4.50;3.60;;;20.60;98.30;;;;;;5044296;28;20244;-69
2022/07/15 05:53:13;;;;;;;5.83;4.40;;;20.70;98.50;;;;;;5025921;28;20187;-68
2022/07/15 05:55:39;;;;;;;6.17;4.03;;;20.70;98.40;;;;;;5024585;28;20622;-70
2022/07/15 05:58:07;;;;;;;7.30;3.87;;;20.90;98.00;;;;;;5023791;28;20487;-67
2022/07/15 06:00:32;;;;;;;7.70;3.93;;;21.00;97.90;;;;;;5023611;28;20183;-72
2022/07/15 06:02:58;;;;;;;5.77;3.70;;;21.10;97.70;;;;;;5006443;28;20424;-69
2022/07/15 06:05:24;;;;;;;3.67;3.00;;;21.10;97.50;;;;;;5039627;28;20214;-67
2022/07/15 06:07:50;;;;;;;3.50;3.20;;;21.20;97.10;;;;;;5043501;28;20467;-70
2022/07/15 06:10:15;;;;;;;4.13;3.77;;;21.40;96.10;;;;;;5043527;28;20183;-69
2022/07/15 06:12:41;;;;;;;4.80;3.37;;;21.50;95.80;;;;;;5043603;28;20178;-71
2022/07/15 06:15:07;;;;;;;4.07;3.53;;;21.40;94.20;;;;;;5037061;28;20551;-70
2022/07/15 06:17:33;;;;;;;3.93;3.20;;;21.50;94.20;;;;;;5029977;28;20207;-68
2022/07/15 06:19:59;;;;;;;5.73;3.40;;;21.60;95.00;;;;;;5040520;28;20420;-69
2022/07/15 06:22:25;;;;;;;4.67;3.77;;;21.50;93.10;;;;;;5043382;28;20936;-69
2022/07/15 06:24:51;;;;;;;5.60;3.43;;;21.50;92.50;;;;;;5013237;28;20819;-68
2022/07/15 06:27:16;;;;;;;3.90;3.03;;;21.50;91.60;;;;;;5024960;28;20191;-69
2022/07/15 06:29:42;;;;;;;3.50;2.60;;;21.10;91.30;;;;;;5023615;28;20286;-68
2022/07/15 06:32:08;;;;;;;5.60;3.50;;;21.00;91.60;;;;;;5035250;28;20262;-68
2022/07/15 06:34:34;;;;;;;6.00;3.20;;;20.90;91.90;;;;;;5035820;28;20210;-70
2022/07/15 06:36:59;;;;;;;4.53;3.33;;;21.20;92.10;;;;;;5027120;28;20211;-69
2022/07/15 06:39:25;;;;;;;3.30;2.57;;;21.20;91.90;;;;;;5037643;28;20969;-71
2022/07/15 06:41:50;;;;;;;4.17;3.13;;;21.30;90.80;;;;;;5023011;28;20175;-68
2022/07/15 06:44:16;;;;;;;3.37;2.97;;;21.50;90.10;;;;;;5023223;28;20190;-70
2022/07/15 06:46:42;;;;;;;3.00;2.60;;;21.60;90.40;;;;;;5005658;28;20183;-70
2022/07/15 06:49:08;;;;;;;5.93;3.13;;;21.80;90.10;;;;;;5041603;28;20210;-70
2022/07/15 06:51:33;;;;;;;3.80;2.90;;;21.80;89.80;;;;;;5031699;28;20278;-69
2022/07/15 06:53:59;;;;;;;8.30;3.70;;;21.90;88.50;;;;;;5037048;28;20190;-72
2022/07/15 06:56:25;;;;;;;6.37;3.10;;;21.80;88.30;;;;;;5025346;28;20282;-70
2022/07/15 06:58:50;;;;;;;3.47;2.80;;;21.80;87.30;;;;;;5039527;28;20313;-68
2022/07/15 07:01:16;;;;;;;3.97;2.70;;;21.80;87.10;;;;;;5043324;28;20627;-69
2022/07/15 07:03:42;;;;;;;7.13;3.63;;;21.60;88.10;;;;;;5042856;28;20189;-69
2022/07/15 07:06:08;;;;;;;4.90;3.43;;;21.50;88.40;;;;;;5040605;28;20186;-69
2022/07/15 07:08:34;;;;;;;3.20;2.50;;;21.40;87.90;;;;;;5033341;28;20195;-69
2022/07/15 07:10:59;;;;;;;4.67;2.80;;;21.50;86.20;;;;;;5018810;28;20467;-69
2022/07/15 07:13:25;;;;;;;2.73;2.30;;;21.80;85.60;;;;;;5042842;28;20417;-69
2022/07/15 07:15:51;;;;;;;2.70;1.90;;;22.00;82.20;;;;;;5041481;28;20200;-72
2022/07/15 07:18:16;;;;;;;5.57;2.87;;;22.20;81.70;;;;;;5022973;28;20213;-68
2022/07/15 07:20:43;;;;;;;3.03;2.30;;;22.20;82.20;;;;;;5032960;28;20549;-69
2022/07/15 07:23:10;;;;;;;3.40;2.37;;;22.40;82.40;;;;;;5042862;28;20568;-70
2022/07/15 07:25:36;;;;;;;6.80;2.97;;;22.50;80.50;;;;;;5042301;28;20826;-67
2022/07/15 07:28:03;;;;;;;3.87;3.07;;;22.10;80.50;;;;;;5042660;28;20476;-68
2022/07/15 07:30:30;;;;;;;4.20;3.00;;;22.00;80.70;;;;;;5042563;28;20186;-68
2022/07/15 07:32:55;;;;;;;2.60;2.20;;;22.20;80.00;;;;;;5042659;28;20419;-68
2022/07/15 07:35:21;;;;;;;5.43;2.50;;;22.30;80.70;;;;;;5025029;28;20418;-68
2022/07/15 07:37:47;;;;;;;3.80;2.80;;;22.40;81.30;;;;;;5023854;28;20214;-69
2022/07/15 07:40:16;;;;;;;4.17;2.60;;;22.50;78.70;;;;;;5024926;28;20686;-72
2022/07/15 07:42:45;;;;;;;3.43;2.63;;;22.40;78.30;;;;;;5034158;28;20414;-70
2022/07/15 07:45:11;;;;;;;4.07;2.10;;;22.20;78.70;;;;;;5028822;28;20921;-70
2022/07/15 07:47:39;;;;;;;3.00;2.43;;;22.10;79.10;;;;;;5004950;28;20442;-69
2022/07/15 07:50:07;;;;;;;3.30;2.60;;;22.00;80.80;;;;;;5023224;28;20475;-73
2022/07/15 07:52:32;;;;;;;2.87;2.50;;;22.20;79.20;;;;;;5032893;28;20438;-70
2022/07/15 07:54:58;;;;;;;3.33;2.40;;;22.30;76.70;;;;;;5030724;28;20418;-69
2022/07/15 07:57:24;;;;;;;3.50;2.50;;;22.30;78.20;;;;;;5023377;28;20199;-69
2022/07/15 07:59:49;;;;;;;3.30;2.10;;;22.50;75.90;;;;;;5039767;28;20531;-69
2022/07/15 08:02:15;;;;;;;4.20;2.30;;;22.50;76.10;;;;;;5044850;28;20416;-72
2022/07/15 08:04:41;;;;;;;3.97;2.60;;;22.70;75.50;;;;;;5045910;28;20762;-70
2022/07/15 08:07:07;;;;;;;2.27;1.87;;;22.70;76.80;;;;;;5045809;28;20599;-67
2022/07/15 08:09:33;;;;;;;7.43;2.27;;;22.70;74.40;;;;;;5042404;28;20175;-67
2022/07/15 08:11:59;;;;;;;4.10;2.57;;;22.50;74.00;;;;;;5025927;28;20414;-68
2022/07/15 08:14:25;;;;;;;2.60;2.00;;;22.50;74.30;;;;;;5029031;28;20838;-69
2022/07/15 08:16:51;;;;;;;2.37;1.93;;;22.50;73.60;;;;;;5045918;28;20203;-69
2022/07/15 08:19:19;;;;;;;4.00;2.20;;;22.60;73.80;;;;;;5045973;28;20395;-72
2022/07/15 08:21:45;;;;;;;2.60;2.00;;;23.00;72.50;;;;;;4996678;28;20425;-69
2022/07/15 08:24:12;;;;;;;3.60;2.73;;;23.10;71.40;;;;;;5038164;28;20413;-72
2022/07/15 08:26:38;;;;;;;4.37;2.40;;;23.00;71.30;;;;;;5043537;28;20436;-70
2022/07/15 08:29:04;;;;;;;4.00;2.00;;;22.80;72.10;;;;;;5045163;28;20543;-69
2022/07/15 08:31:31;;;;;;;3.83;2.37;;;23.20;73.10;;;;;;5024348;28;20507;-68
2022/07/15 08:33:57;;;;;;;3.80;1.90;;;23.20;70.40;;;;;;5037289;28;20815;-70
2022/07/15 08:36:22;;;;;;;3.73;2.00;;;23.00;70.20;;;;;;5044819;28;20464;-72
2022/07/15 08:38:48;;;;;;;7.70;2.30;;;23.00;69.40;;;;;;5044901;28;20574;-69
2022/07/15 08:41:15;;;;;;;4.53;2.33;;;23.00;70.00;;;;;;5025316;28;20176;-70
2022/07/15 08:43:41;;;;;;;2.63;2.30;;;23.00;70.10;;;;;;5026087;28;20974;-69
2022/07/15 08:46:07;;;;;;;3.53;2.10;;;22.70;69.80;;;;;;5025943;28;20402;-70
2022/07/15 08:48:36;;;;;;;3.90;2.27;;;22.60;70.60;;;;;;5035053;28;20201;-70
2022/07/15 08:51:05;;;;;;;4.23;2.13;;;22.90;70.40;;;;;;5044853;28;20409;-70
2022/07/15 08:53:31;;;;;;;4.37;1.73;;;23.30;70.30;;;;;;5045016;28;20409;-70
2022/07/15 08:55:57;;;;;;;5.80;2.63;;;23.70;70.30;;;;;;5042738;28;20416;-69
2022/07/15 08:58:23;;;;;;;5.13;2.57;;;23.60;69.10;;;;;;5026299;28;20900;-70
2022/07/15 09:00:49;;;;;;;2.53;2.30;;;23.50;68.50;;;;;;5025247;28;20406;-68
2022/07/15 09:03:15;;;;;;;3.07;1.93;;;23.40;68.40;;;;;;5024954;28;20762;-67
2022/07/15 09:05:41;;;;;;;4.90;2.90;;;23.30;68.60;;;;;;5025628;28;20651;-69
2022/07/15 09:08:07;;;;;;;3.47;2.40;;;23.00;69.30;;;;;;5025068;28;20434;-68
2022/07/15 09:10:52;;;;;;;4.97;2.87;;;23.10;69.70;;;;;;5034222;28;20256;-71
2022/07/15 09:13:30;;;;;;;6.27;2.27;;;23.30;70.20;;;;;;5024950;28;20209;-68
2022/07/15 09:15:58;;;;;;;7.10;2.40;;;23.30;69.10;;;;;;5038878;28;20458;-68
2022/07/15 09:18:27;;;;;;;4.03;2.23;;;23.50;68.80;;;;;;5044418;28;20472;-69
2022/07/15 09:20:53;;;;;;;2.30;2.10;;;23.80;69.60;;;;;;5044685;28;20780;-69
2022/07/15 09:23:29;;;;;;;3.33;2.57;;;24.10;68.30;;;;;;5044606;28;20439;-70
2022/07/15 09:26:18;;;;;;;3.10;2.33;;;24.00;67.40;;;;;;5044227;28;20475;-69
2022/07/15 09:28:44;;;;;;;4.37;2.37;;;24.10;67.70;;;;;;5030689;28;20536;-71
2022/07/15 09:34:02;;;;;;;3.27;2.40;;;24.50;66.50;;;;;;5018678;28;20416;-71
2022/07/15 09:36:30;;;;;;;3.10;2.80;;;24.70;67.10;;;;;;5026424;28;20461;-71
2022/07/15 09:39:04;;;;;;;3.77;2.70;;;24.80;66.90;;;;;;5026695;28;20430;-69
2022/07/15 09:41:40;;;;;;;3.67;2.37;;;24.90;66.60;;;;;;5025249;28;20413;-69
2022/07/15 09:44:16;;;;;;;4.60;2.87;;;25.10;66.50;;;;;;5044268;28;20408;-68
2022/07/15 09:46:57;;;;;;;3.67;2.90;;;24.80;66.60;;;;;;5044111;28;20491;-68
2022/07/15 09:49:22;;;;;;;6.60;3.30;;;24.40;67.10;;;;;;5044132;28;20512;-69
2022/07/15 09:51:55;;;;;;;2.83;2.40;;;24.30;67.30;;;;;;5043741;28;20496;-70
2022/07/15 09:54:23;;;;;;;4.07;2.60;;;24.10;67.60;;;;;;5036808;28;20179;-69
2022/07/15 09:56:49;;;;;;;6.07;3.57;;;24.20;67.10;;;;;;5024082;28;20453;-69
2022/07/15 09:59:15;;;;;;;4.73;3.10;;;24.30;68.60;;;;;;5023923;28;20432;-71
2022/07/15 10:01:42;;;;;;;3.97;2.50;;;24.50;66.70;;;;;;5024265;28;20441;-70
2022/07/15 10:04:09;;;;;;;5.03;3.00;;;24.60;66.30;;;;;;5024160;28;20406;-71
2022/07/15 10:06:40;;;;;;;4.40;2.27;;;25.10;67.30;;;;;;5035623;28;20516;-70
2022/07/15 10:09:08;;;;;;;2.57;2.37;;;25.40;65.50;;;;;;5043711;28;20439;-71
2022/07/15 10:11:41;;;;;;;3.97;2.20;;;25.70;64.30;;;;;;5037072;28;20501;-70
2022/07/15 10:14:24;;;;;;;4.80;2.50;;;25.10;64.70;;;;;;5024244;28;20410;-70
2022/07/15 10:17:12;;;;;;;2.83;2.20;;;25.20;64.50;;;;;;5024048;28;20450;-70
2022/07/15 10:20:07;;;;;;;4.03;2.33;;;25.40;64.20;;;;;;5023755;28;20497;-71
2022/07/15 10:22:57;;;;;;;3.40;2.40;;;25.40;63.90;;;;;;5005881;28;20453;-70
2022/07/15 10:25:41;;;;;;;3.87;2.40;;;25.40;63.50;;;;;;5023853;28;20402;-71
2022/07/15 10:28:18;;;;;;;4.70;3.07;;;25.30;63.40;;;;;;5026803;28;20478;-69
2022/07/15 10:30:44;;;;;;;3.13;2.10;;;25.40;63.50;;;;;;5043114;28;20495;-72
2022/07/15 10:33:14;;;;;;;3.47;2.33;;;25.90;63.10;;;;;;5043418;28;20417;-70
2022/07/15 10:35:52;;;;;;;2.73;2.10;;;26.10;62.20;;;;;;5043949;28;20413;-69
2022/07/15 10:38:20;;;;;;;4.00;2.90;;;26.00;62.80;;;;;;5043190;28;20464;-69
2022/07/15 10:40:55;;;;;;;4.17;3.10;;;26.00;61.70;;;;;;5027374;28;20398;-70
2022/07/15 10:43:53;;;;;;;5.30;3.10;;;25.90;62.80;;;;;;5023639;28;20787;-69
2022/07/15 10:46:24;;;;;;;2.83;2.40;;;25.80;63.20;;;;;;5036265;28;20795;-70
2022/07/15 10:48:53;;;;;;;2.77;2.47;;;25.80;62.20;;;;;;5030277;28;20479;-70
2022/07/15 10:51:48;;;;;;;5.37;2.30;;;25.80;62.40;;;;;;5023506;28;20410;-71
2022/07/15 10:54:16;;;;;;;2.93;2.50;;;25.50;63.60;;;;;;5014534;28;20434;-69
2022/07/15 10:56:48;;;;;;;3.60;2.60;;;25.80;63.00;;;;;;5028817;28;20527;-70
2022/07/15 10:59:24;;;;;;;4.57;2.60;;;26.00;61.80;;;;;;5042992;28;20516;-70
2022/07/15 11:01:59;;;;;;;4.73;2.30;;;26.20;62.20;;;;;;5042906;28;20441;-69
2022/07/15 11:04:27;;;;;;;3.73;2.77;;;26.30;61.30;;;;;;5043358;28;20921;-69
2022/07/15 11:07:02;;;;;;;4.73;2.87;;;26.30;61.80;;;;;;5039139;28;20417;-69
2022/07/15 11:09:47;;;;;;;5.53;2.23;;;26.60;60.90;;;;;;5043029;28;20440;-71
2022/07/15 11:12:18;;;;;;;4.80;2.87;;;26.60;61.40;;;;;;5032834;28;20417;-69
2022/07/15 11:14:45;;;;;;;3.83;2.70;;;26.50;60.50;;;;;;5025041;28;20489;-69
2022/07/15 11:17:12;;;;;;;3.50;2.93;;;26.70;61.60;;;;;;5022836;28;21025;-69
2022/07/15 11:19:38;;;;;;;3.23;2.63;;;26.70;60.50;;;;;;5039691;28;20773;-69
2022/07/15 11:22:07;;;;;;;3.27;2.57;;;26.30;60.00;;;;;;5025254;28;20421;-68
2022/07/15 11:24:35;;;;;;;3.40;2.83;;;26.30;60.50;;;;;;5038496;28;20429;-69
2022/07/15 11:27:01;;;;;;;4.47;2.20;;;26.20;60.40;;;;;;5029272;28;20464;-69
2022/07/15 11:29:44;;;;;;;5.83;3.30;;;26.30;59.90;;;;;;5022584;28;21456;-71
2022/07/15 11:32:10;;;;;;;7.40;2.60;;;26.80;59.80;;;;;;5022897;28;20410;-69
2022/07/15 11:34:45;;;;;;;3.70;2.70;;;27.60;59.20;;;;;;5025966;28;20401;-70
2022/07/15 11:37:12;;;;;;;4.57;2.50;;;28.90;55.90;;;;;;5026578;28;20449;-70
2022/07/15 11:39:39;;;;;;;4.67;2.70;;;29.20;56.40;;;;;;5041144;28;20410;-69
2022/07/15 11:44:50;;;;;;;3.33;2.50;;;30.20;53.10;;;;;;5026148;28;20397;-69
2022/07/15 11:47:17;;;;;;;3.07;2.37;;;29.30;54.20;;;;;;5026652;28;20414;-69
2022/07/15 11:49:43;;;;;;;3.57;2.57;;;30.20;54.70;;;;;;5008801;28;20422;-70
2022/07/15 11:52:22;;;;;;;4.00;2.40;;;30.20;54.00;;;;;;5026498;28;20413;-70
2022/07/15 11:54:48;;;;;;;5.40;2.90;;;29.80;52.70;;;;;;5032495;28;20481;-71
2022/07/15 11:57:14;;;;;;;4.80;2.30;;;31.00;51.80;;;;;;5046255;28;20452;-70
2022/07/15 11:59:49;;;;;;;3.30;2.50;;;30.80;51.10;;;;;;5046155;28;20316;-70
2022/07/15 12:02:15;;;;;;;4.90;2.83;;;29.40;53.40;;;;;;5034914;28;20401;-70
2022/07/15 12:04:44;;;;;;;5.37;2.43;;;29.80;53.30;;;;;;5027468;28;20414;-70
2022/07/15 12:07:10;;;;;;;4.00;2.30;;;30.50;51.40;;;;;;5045829;28;20183;-69
2022/07/15 12:09:51;;;;;;;3.13;2.83;;;28.90;53.80;;;;;;5046113;28;20496;-69
2022/07/15 12:12:17;;;;;;;3.83;3.00;;;28.10;55.00;;;;;;5035256;28;20445;-70
2022/07/15 12:14:47;;;;;;;3.90;3.00;;;27.30;56.30;;;;;;5025785;28;20417;-70
2022/07/15 12:17:14;;;;;;;4.30;2.90;;;28.10;57.00;;;;;;5025918;28;20495;-70
2022/07/15 12:19:46;;;;;;;3.60;2.90;;;29.80;52.90;;;;;;5035358;28;20828;-70
2022/07/15 12:22:12;;;;;;;4.10;2.87;;;30.20;52.40;;;;;;5045794;28;20420;-70
2022/07/15 12:24:42;;;;;;;3.23;2.93;;;29.70;52.60;;;;;;5045761;28;20410;-71
2022/07/15 12:27:08;;;;;;;5.20;2.70;;;28.60;53.70;;;;;;5045443;28;20190;-68
2022/07/15 12:29:34;;;;;;;9.03;2.87;;;29.70;54.40;;;;;;5045290;28;20409;-69
2022/07/15 12:32:06;;;;;;;4.30;2.73;;;30.50;51.40;;;;;;5045585;28;20552;-70
2022/07/15 12:34:48;;;;;;;3.93;2.27;;;31.90;49.60;;;;;;5045648;28;20483;-69
2022/07/15 12:37:16;;;;;;;5.37;2.50;;;32.30;48.30;;;;;;5045896;28;20456;-68
2022/07/15 12:40:07;;;;;;;2.90;2.47;;;32.30;48.50;;;;;;5045336;28;20456;-69
2022/07/15 12:42:44;;;;;;;4.20;2.73;;;31.30;49.30;;;;;;5032548;28;20455;-69
2022/07/15 12:45:16;;;;;;;5.73;2.70;;;32.40;48.30;;;;;;5024908;28;21351;-68
2022/07/15 12:48:07;;;;;;;4.90;2.07;;;32.40;47.20;;;;;;5025758;28;20438;-69
2022/07/15 12:50:36;;;;;;;4.87;2.97;;;32.00;48.70;;;;;;5025529;28;20911;-69
2022/07/15 12:53:03;;;;;;;3.20;2.33;;;32.80;46.70;;;;;;5025649;28;20417;-69
2022/07/15 12:55:31;;;;;;;3.07;2.30;;;33.40;46.50;;;;;;5025281;28;20471;-70
2022/07/15 12:58:16;;;;;;;2.40;2.10;;;33.50;45.60;;;;;;5006947;28;20457;-68
2022/07/15 13:00:46;;;;;;;4.53;2.20;;;31.60;47.20;;;;;;5042737;28;20405;-69
2022/07/15 13:03:31;;;;;;;3.50;2.43;;;31.00;48.80;;;;;;5045269;28;20484;-69